Hauptseite
METAR-TAF:

METAR-TAF

Flughäfen :

Juanjuí, Peru

Breite: 07-10-10S, Länge: 076-43-45W, Höhe: 350 m

METAR: fehlend

Zeit: 05:57 (10:57 UTC)

Prognose

Neuester Wetterbericht von vor 17 Stunden und 37 Minuten, um 17:20 UTC
Gültige Prognose vom 20 um 18 UTC bis 21 um 18 UTC
Wind 4 kt aus Ost
Sichtweite 10 km oder mehr
Aufgelockert bewölkt in der Höhe von 2000 ft
Aufgelockert bewölkt in der Höhe von 10000 ft

TAF: SPJI 201720Z 2018/2118 10004KT 9999 SCT020 SCT100 TX33/2020Z TN19/2111Z

Wetterbeobachtungen und Prognosen von mehr als 4000 Flughäfen (METAR und TAF Bericht).

Die verfügbaren Stationen werden durch gelbe und rote Markierungen auf der Karte dargestellt.

Führen Sie die Maus auf sie, um den Namen der Station zu sehen.

Darauf klicken, um die Beobachtung von Wetterbeobachtungen und Prognosen zu sehen.

Um die Karte zu ändern : klicken Sie auf den grünen Tasten mit einem schwarzen Kreuz Zum Vergrößern, auf den grünen Button mit einem Gedankenstrich zu verkleinern, oder auf die grünen Pfeile für benachbarte Karten.


METAR-TAF: